sensor_id;sensor_type;location;lat;lon;timestamp;P1;durP1;ratioP1;P2;durP2;ratioP2
31128;SDS011;17777;48.770;8.944;2022-08-18T00:00:29;0.40;;;0.40;;
31128;SDS011;17777;48.770;8.944;2022-08-18T00:02:58;0.40;;;0.40;;
31128;SDS011;17777;48.770;8.944;2022-08-18T00:05:29;0.43;;;0.43;;
31128;SDS011;17777;48.770;8.944;2022-08-18T00:07:59;1.02;;;0.40;;
31128;SDS011;17777;48.770;8.944;2022-08-18T00:10:26;0.40;;;0.40;;
31128;SDS011;17777;48.770;8.944;2022-08-18T00:12:52;0.70;;;0.43;;
31128;SDS011;17777;48.770;8.944;2022-08-18T00:15:18;0.40;;;0.40;;
31128;SDS011;17777;48.770;8.944;2022-08-18T00:17:45;0.30;;;0.30;;
31128;SDS011;17777;48.770;8.944;2022-08-18T00:20:12;0.50;;;0.50;;
31128;SDS011;17777;48.770;8.944;2022-08-18T00:22:41;0.50;;;0.43;;
31128;SDS011;17777;48.770;8.944;2022-08-18T00:25:08;0.40;;;0.40;;
31128;SDS011;17777;48.770;8.944;2022-08-18T00:27:36;0.30;;;0.30;;
31128;SDS011;17777;48.770;8.944;2022-08-18T00:30:05;0.32;;;0.32;;
31128;SDS011;17777;48.770;8.944;2022-08-18T00:32:39;0.30;;;0.30;;
31128;SDS011;17777;48.770;8.944;2022-08-18T00:35:13;0.30;;;0.30;;
31128;SDS011;17777;48.770;8.944;2022-08-18T00:37:46;0.57;;;0.35;;
31128;SDS011;17777;48.770;8.944;2022-08-18T00:40:15;0.40;;;0.40;;
31128;SDS011;17777;48.770;8.944;2022-08-18T00:42:49;0.40;;;0.40;;
31128;SDS011;17777;48.770;8.944;2022-08-18T00:45:19;0.43;;;0.43;;
31128;SDS011;17777;48.770;8.944;2022-08-18T00:47:52;1.05;;;0.50;;
31128;SDS011;17777;48.770;8.944;2022-08-18T00:50:23;0.47;;;0.40;;
31128;SDS011;17777;48.770;8.944;2022-08-18T00:52:58;0.30;;;0.30;;
31128;SDS011;17777;48.770;8.944;2022-08-18T00:55:34;0.50;;;0.40;;
31128;SDS011;17777;48.770;8.944;2022-08-18T01:01:03;0.25;;;0.25;;
31128;SDS011;17777;48.770;8.944;2022-08-18T01:03:31;0.30;;;0.30;;
31128;SDS011;17777;48.770;8.944;2022-08-18T01:05:59;0.40;;;0.40;;
31128;SDS011;17777;48.770;8.944;2022-08-18T01:08:48;0.40;;;0.40;;
31128;SDS011;17777;48.770;8.944;2022-08-18T01:11:14;0.38;;;0.38;;
31128;SDS011;17777;48.770;8.944;2022-08-18T01:13:40;0.40;;;0.40;;
31128;SDS011;17777;48.770;8.944;2022-08-18T01:16:07;0.50;;;0.50;;
31128;SDS011;17777;48.770;8.944;2022-08-18T01:18:51;0.40;;;0.40;;
31128;SDS011;17777;48.770;8.944;2022-08-18T01:21:38;0.35;;;0.35;;
31128;SDS011;17777;48.770;8.944;2022-08-18T01:24:16;0.30;;;0.30;;
31128;SDS011;17777;48.770;8.944;2022-08-18T01:27:12;0.40;;;0.40;;
31128;SDS011;17777;48.770;8.944;2022-08-18T01:29:46;0.25;;;0.25;;
31128;SDS011;17777;48.770;8.944;2022-08-18T01:32:14;0.50;;;0.40;;
31128;SDS011;17777;48.770;8.944;2022-08-18T01:34:45;0.28;;;0.28;;
31128;SDS011;17777;48.770;8.944;2022-08-18T01:37:16;1.08;;;0.30;;
31128;SDS011;17777;48.770;8.944;2022-08-18T01:39:46;0.52;;;0.40;;
31128;SDS011;17777;48.770;8.944;2022-08-18T01:42:13;0.45;;;0.45;;
31128;SDS011;17777;48.770;8.944;2022-08-18T01:44:43;0.30;;;0.30;;
31128;SDS011;17777;48.770;8.944;2022-08-18T01:47:15;0.50;;;0.30;;
31128;SDS011;17777;48.770;8.944;2022-08-18T01:49:43;0.68;;;0.68;;
31128;SDS011;17777;48.770;8.944;2022-08-18T01:52:09;0.30;;;0.30;;
31128;SDS011;17777;48.770;8.944;2022-08-18T01:54:44;0.43;;;0.43;;
31128;SDS011;17777;48.770;8.944;2022-08-18T01:57:13;0.40;;;0.40;;
31128;SDS011;17777;48.770;8.944;2022-08-18T01:59:41;0.40;;;0.40;;
31128;SDS011;17777;48.770;8.944;2022-08-18T02:02:08;0.40;;;0.40;;
31128;SDS011;17777;48.770;8.944;2022-08-18T02:04:37;0.55;;;0.40;;
31128;SDS011;17777;48.770;8.944;2022-08-18T02:07:05;0.40;;;0.40;;
31128;SDS011;17777;48.770;8.944;2022-08-18T02:09:35;0.35;;;0.35;;
31128;SDS011;17777;48.770;8.944;2022-08-18T02:12:04;0.40;;;0.40;;
31128;SDS011;17777;48.770;8.944;2022-08-18T02:14:31;0.50;;;0.50;;
31128;SDS011;17777;48.770;8.944;2022-08-18T02:16:59;0.30;;;0.30;;
31128;SDS011;17777;48.770;8.944;2022-08-18T02:19:27;0.40;;;0.35;;
31128;SDS011;17777;48.770;8.944;2022-08-18T02:22:01;0.55;;;0.50;;
31128;SDS011;17777;48.770;8.944;2022-08-18T02:24:28;0.30;;;0.30;;
31128;SDS011;17777;48.770;8.944;2022-08-18T02:26:54;0.45;;;0.45;;
31128;SDS011;17777;48.770;8.944;2022-08-18T02:29:20;0.63;;;0.50;;
31128;SDS011;17777;48.770;8.944;2022-08-18T02:31:45;0.40;;;0.40;;
31128;SDS011;17777;48.770;8.944;2022-08-18T02:34:11;0.30;;;0.30;;
31128;SDS011;17777;48.770;8.944;2022-08-18T02:36:37;0.30;;;0.30;;
31128;SDS011;17777;48.770;8.944;2022-08-18T02:39:03;0.40;;;0.40;;
31128;SDS011;17777;48.770;8.944;2022-08-18T02:41:29;0.38;;;0.38;;
31128;SDS011;17777;48.770;8.944;2022-08-18T02:43:55;0.40;;;0.40;;
31128;SDS011;17777;48.770;8.944;2022-08-18T02:46:22;0.35;;;0.35;;
31128;SDS011;17777;48.770;8.944;2022-08-18T02:48:49;0.73;;;0.57;;
31128;SDS011;17777;48.770;8.944;2022-08-18T02:51:16;0.50;;;0.50;;
31128;SDS011;17777;48.770;8.944;2022-08-18T02:53:44;0.60;;;0.60;;
31128;SDS011;17777;48.770;8.944;2022-08-18T02:56:12;0.35;;;0.35;;
31128;SDS011;17777;48.770;8.944;2022-08-18T02:58:56;1.00;;;0.50;;
31128;SDS011;17777;48.770;8.944;2022-08-18T03:01:35;0.32;;;0.32;;
31128;SDS011;17777;48.770;8.944;2022-08-18T03:04:05;0.40;;;0.40;;
31128;SDS011;17777;48.770;8.944;2022-08-18T03:06:33;0.40;;;0.40;;
31128;SDS011;17777;48.770;8.944;2022-08-18T03:09:02;0.40;;;0.40;;
31128;SDS011;17777;48.770;8.944;2022-08-18T03:11:29;0.40;;;0.40;;
31128;SDS011;17777;48.770;8.944;2022-08-18T03:13:55;0.30;;;0.30;;
31128;SDS011;17777;48.770;8.944;2022-08-18T03:16:22;0.40;;;0.40;;
31128;SDS011;17777;48.770;8.944;2022-08-18T03:18:49;0.30;;;0.30;;
31128;SDS011;17777;48.770;8.944;2022-08-18T03:21:17;0.38;;;0.38;;
31128;SDS011;17777;48.770;8.944;2022-08-18T03:23:46;0.38;;;0.38;;
31128;SDS011;17777;48.770;8.944;2022-08-18T03:26:15;0.38;;;0.38;;
31128;SDS011;17777;48.770;8.944;2022-08-18T03:28:44;0.40;;;0.40;;
31128;SDS011;17777;48.770;8.944;2022-08-18T03:31:13;0.47;;;0.47;;
31128;SDS011;17777;48.770;8.944;2022-08-18T03:33:41;0.40;;;0.40;;
31128;SDS011;17777;48.770;8.944;2022-08-18T03:36:09;0.38;;;0.38;;
31128;SDS011;17777;48.770;8.944;2022-08-18T03:38:39;0.43;;;0.40;;
31128;SDS011;17777;48.770;8.944;2022-08-18T03:41:07;0.40;;;0.40;;
31128;SDS011;17777;48.770;8.944;2022-08-18T03:43:35;0.40;;;0.40;;
31128;SDS011;17777;48.770;8.944;2022-08-18T03:46:02;0.40;;;0.40;;
31128;SDS011;17777;48.770;8.944;2022-08-18T03:48:33;0.40;;;0.40;;
31128;SDS011;17777;48.770;8.944;2022-08-18T03:51:04;0.40;;;0.40;;
31128;SDS011;17777;48.770;8.944;2022-08-18T03:53:51;0.60;;;0.50;;
31128;SDS011;17777;48.770;8.944;2022-08-18T03:56:22;0.57;;;0.57;;
31128;SDS011;17777;48.770;8.944;2022-08-18T03:58:51;0.40;;;0.40;;
31128;SDS011;17777;48.770;8.944;2022-08-18T04:01:25;0.35;;;0.35;;
31128;SDS011;17777;48.770;8.944;2022-08-18T04:03:54;0.47;;;0.47;;
31128;SDS011;17777;48.770;8.944;2022-08-18T04:06:31;0.30;;;0.30;;
31128;SDS011;17777;48.770;8.944;2022-08-18T04:09:03;0.40;;;0.40;;
31128;SDS011;17777;48.770;8.944;2022-08-18T04:11:35;0.40;;;0.40;;
31128;SDS011;17777;48.770;8.944;2022-08-18T04:14:03;0.40;;;0.40;;
31128;SDS011;17777;48.770;8.944;2022-08-18T04:16:30;0.70;;;0.55;;
31128;SDS011;17777;48.770;8.944;2022-08-18T04:18:57;0.40;;;0.40;;
31128;SDS011;17777;48.770;8.944;2022-08-18T04:21:28;0.43;;;0.43;;
31128;SDS011;17777;48.770;8.944;2022-08-18T04:23:57;0.50;;;0.50;;
31128;SDS011;17777;48.770;8.944;2022-08-18T04:26:29;0.80;;;0.50;;
31128;SDS011;17777;48.770;8.944;2022-08-18T04:29:04;0.47;;;0.47;;
31128;SDS011;17777;48.770;8.944;2022-08-18T04:31:31;0.50;;;0.50;;
31128;SDS011;17777;48.770;8.944;2022-08-18T04:33:57;0.40;;;0.40;;
31128;SDS011;17777;48.770;8.944;2022-08-18T04:36:25;0.50;;;0.50;;
31128;SDS011;17777;48.770;8.944;2022-08-18T04:38:52;0.45;;;0.45;;
31128;SDS011;17777;48.770;8.944;2022-08-18T04:41:19;0.50;;;0.50;;
31128;SDS011;17777;48.770;8.944;2022-08-18T04:43:47;0.50;;;0.50;;
31128;SDS011;17777;48.770;8.944;2022-08-18T04:46:13;0.50;;;0.50;;
31128;SDS011;17777;48.770;8.944;2022-08-18T04:48:39;0.55;;;0.50;;
31128;SDS011;17777;48.770;8.944;2022-08-18T04:51:13;0.40;;;0.40;;
31128;SDS011;17777;48.770;8.944;2022-08-18T04:53:42;0.40;;;0.30;;
31128;SDS011;17777;48.770;8.944;2022-08-18T04:56:13;0.68;;;0.50;;
31128;SDS011;17777;48.770;8.944;2022-08-18T04:58:46;0.40;;;0.40;;
31128;SDS011;17777;48.770;8.944;2022-08-18T05:01:16;0.40;;;0.40;;
31128;SDS011;17777;48.770;8.944;2022-08-18T05:03:45;0.40;;;0.40;;
31128;SDS011;17777;48.770;8.944;2022-08-18T05:06:16;0.40;;;0.40;;
31128;SDS011;17777;48.770;8.944;2022-08-18T05:08:50;0.50;;;0.50;;
31128;SDS011;17777;48.770;8.944;2022-08-18T05:11:18;0.40;;;0.40;;
31128;SDS011;17777;48.770;8.944;2022-08-18T05:13:46;0.30;;;0.30;;
31128;SDS011;17777;48.770;8.944;2022-08-18T05:16:13;0.50;;;0.50;;
31128;SDS011;17777;48.770;8.944;2022-08-18T05:18:39;0.30;;;0.30;;
31128;SDS011;17777;48.770;8.944;2022-08-18T05:21:06;0.40;;;0.40;;
31128;SDS011;17777;48.770;8.944;2022-08-18T05:26:07;0.30;;;0.30;;
31128;SDS011;17777;48.770;8.944;2022-08-18T05:28:34;0.75;;;0.40;;
31128;SDS011;17777;48.770;8.944;2022-08-18T05:31:05;0.45;;;0.45;;
31128;SDS011;17777;48.770;8.944;2022-08-18T05:33:43;0.50;;;0.50;;
31128;SDS011;17777;48.770;8.944;2022-08-18T05:36:19;0.40;;;0.40;;
31128;SDS011;17777;48.770;8.944;2022-08-18T05:42:21;0.30;;;0.30;;
31128;SDS011;17777;48.770;8.944;2022-08-18T05:44:50;0.35;;;0.35;;
31128;SDS011;17777;48.770;8.944;2022-08-18T05:47:23;0.47;;;0.47;;
31128;SDS011;17777;48.770;8.944;2022-08-18T05:49:55;0.38;;;0.38;;
31128;SDS011;17777;48.770;8.944;2022-08-18T05:52:32;0.40;;;0.40;;
31128;SDS011;17777;48.770;8.944;2022-08-18T05:55:27;0.40;;;0.40;;
31128;SDS011;17777;48.770;8.944;2022-08-18T05:58:25;0.43;;;0.43;;
31128;SDS011;17777;48.770;8.944;2022-08-18T06:00:59;0.40;;;0.40;;
31128;SDS011;17777;48.770;8.944;2022-08-18T06:03:34;0.40;;;0.40;;
31128;SDS011;17777;48.770;8.944;2022-08-18T06:06:12;0.40;;;0.40;;
31128;SDS011;17777;48.770;8.944;2022-08-18T06:08:55;0.50;;;0.50;;
31128;SDS011;17777;48.770;8.944;2022-08-18T06:11:42;0.93;;;0.70;;
31128;SDS011;17777;48.770;8.944;2022-08-18T06:14:08;1.05;;;0.50;;
31128;SDS011;17777;48.770;8.944;2022-08-18T06:25:17;0.50;;;0.50;;
31128;SDS011;17777;48.770;8.944;2022-08-18T06:28:28;0.57;;;0.57;;
31128;SDS011;17777;48.770;8.944;2022-08-18T06:30:48;0.50;;;0.50;;
31128;SDS011;17777;48.770;8.944;2022-08-18T06:33:32;0.60;;;0.60;;
31128;SDS011;17777;48.770;8.944;2022-08-18T06:36:36;0.30;;;0.30;;
31128;SDS011;17777;48.770;8.944;2022-08-18T06:39:28;0.40;;;0.40;;
31128;SDS011;17777;48.770;8.944;2022-08-18T06:42:01;0.35;;;0.35;;
31128;SDS011;17777;48.770;8.944;2022-08-18T06:44:44;0.50;;;0.40;;
31128;SDS011;17777;48.770;8.944;2022-08-18T06:47:32;0.40;;;0.40;;
31128;SDS011;17777;48.770;8.944;2022-08-18T06:56:24;0.38;;;0.38;;
31128;SDS011;17777;48.770;8.944;2022-08-18T06:59:12;0.40;;;0.40;;
31128;SDS011;17777;48.770;8.944;2022-08-18T07:01:43;0.40;;;0.40;;
31128;SDS011;17777;48.770;8.944;2022-08-18T07:07:13;0.38;;;0.38;;
31128;SDS011;17777;48.770;8.944;2022-08-18T07:09:44;0.50;;;0.40;;
31128;SDS011;17777;48.770;8.944;2022-08-18T07:12:17;0.30;;;0.30;;
31128;SDS011;17777;48.770;8.944;2022-08-18T07:14:49;0.30;;;0.30;;
31128;SDS011;17777;48.770;8.944;2022-08-18T07:17:24;0.40;;;0.40;;
31128;SDS011;17777;48.770;8.944;2022-08-18T07:22:55;0.35;;;0.35;;
31128;SDS011;17777;48.770;8.944;2022-08-18T07:25:27;0.40;;;0.40;;
31128;SDS011;17777;48.770;8.944;2022-08-18T07:27:56;0.25;;;0.25;;
31128;SDS011;17777;48.770;8.944;2022-08-18T07:33:09;0.30;;;0.30;;
31128;SDS011;17777;48.770;8.944;2022-08-18T07:35:50;0.60;;;0.38;;
31128;SDS011;17777;48.770;8.944;2022-08-18T07:38:25;0.55;;;0.55;;
31128;SDS011;17777;48.770;8.944;2022-08-18T07:40:56;0.50;;;0.50;;
31128;SDS011;17777;48.770;8.944;2022-08-18T07:43:36;0.40;;;0.40;;
31128;SDS011;17777;48.770;8.944;2022-08-18T07:46:20;0.30;;;0.30;;
31128;SDS011;17777;48.770;8.944;2022-08-18T07:49:21;0.30;;;0.30;;
31128;SDS011;17777;48.770;8.944;2022-08-18T07:51:51;0.50;;;0.50;;
31128;SDS011;17777;48.770;8.944;2022-08-18T07:54:27;0.40;;;0.40;;
31128;SDS011;17777;48.770;8.944;2022-08-18T08:00:04;0.60;;;0.60;;
31128;SDS011;17777;48.770;8.944;2022-08-18T08:06:13;0.30;;;0.30;;
31128;SDS011;17777;48.770;8.944;2022-08-18T08:09:17;0.50;;;0.50;;
31128;SDS011;17777;48.770;8.944;2022-08-18T08:11:57;0.40;;;0.40;;
31128;SDS011;17777;48.770;8.944;2022-08-18T08:14:35;0.50;;;0.50;;
31128;SDS011;17777;48.770;8.944;2022-08-18T08:17:23;0.57;;;0.45;;
31128;SDS011;17777;48.770;8.944;2022-08-18T08:28:23;0.55;;;0.55;;
31128;SDS011;17777;48.770;8.944;2022-08-18T08:31:11;0.30;;;0.30;;
31128;SDS011;17777;48.770;8.944;2022-08-18T08:34:08;0.50;;;0.40;;
31128;SDS011;17777;48.770;8.944;2022-08-18T08:36:42;0.55;;;0.43;;
31128;SDS011;17777;48.770;8.944;2022-08-18T08:39:20;0.40;;;0.40;;
31128;SDS011;17777;48.770;8.944;2022-08-18T08:42:39;0.50;;;0.40;;
31128;SDS011;17777;48.770;8.944;2022-08-18T08:45:37;0.50;;;0.50;;
31128;SDS011;17777;48.770;8.944;2022-08-18T08:48:24;0.40;;;0.40;;
31128;SDS011;17777;48.770;8.944;2022-08-18T08:51:03;0.45;;;0.45;;
31128;SDS011;17777;48.770;8.944;2022-08-18T08:53:44;0.63;;;0.50;;
31128;SDS011;17777;48.770;8.944;2022-08-18T08:56:19;0.50;;;0.50;;
31128;SDS011;17777;48.770;8.944;2022-08-18T08:59:02;0.40;;;0.40;;
31128;SDS011;17777;48.770;8.944;2022-08-18T09:02:21;0.50;;;0.50;;
31128;SDS011;17777;48.770;8.944;2022-08-18T09:08:00;0.47;;;0.47;;
31128;SDS011;17777;48.770;8.944;2022-08-18T09:17:19;0.50;;;0.50;;
31128;SDS011;17777;48.770;8.944;2022-08-18T09:38:59;1.30;;;0.60;;
31128;SDS011;17777;48.770;8.944;2022-08-18T09:42:26;0.30;;;0.30;;
31128;SDS011;17777;48.770;8.944;2022-08-18T09:45:00;0.50;;;0.50;;
31128;SDS011;17777;48.770;8.944;2022-08-18T09:57:28;0.70;;;0.70;;
31128;SDS011;17777;48.770;8.944;2022-08-18T10:13:25;0.80;;;0.80;;
31128;SDS011;17777;48.770;8.944;2022-08-18T10:16:15;1.00;;;0.77;;
31128;SDS011;17777;48.770;8.944;2022-08-18T10:19:21;0.77;;;0.77;;
31128;SDS011;17777;48.770;8.944;2022-08-18T10:22:04;1.17;;;1.08;;
31128;SDS011;17777;48.770;8.944;2022-08-18T10:24:37;11.18;;;7.63;;
31128;SDS011;17777;48.770;8.944;2022-08-18T10:32:56;96.28;;;63.40;;
31128;SDS011;17777;48.770;8.944;2022-08-18T10:35:52;172.98;;;104.00;;
31128;SDS011;17777;48.770;8.944;2022-08-18T10:38:27;107.90;;;73.07;;
31128;SDS011;17777;48.770;8.944;2022-08-18T10:41:43;99.13;;;72.03;;
31128;SDS011;17777;48.770;8.944;2022-08-18T10:44:00;86.43;;;62.27;;
31128;SDS011;17777;48.770;8.944;2022-08-18T10:46:30;88.32;;;64.15;;
31128;SDS011;17777;48.770;8.944;2022-08-18T10:49:06;67.50;;;48.50;;
31128;SDS011;17777;48.770;8.944;2022-08-18T10:51:54;43.30;;;34.95;;
31128;SDS011;17777;48.770;8.944;2022-08-18T10:57:09;19.13;;;16.83;;
31128;SDS011;17777;48.770;8.944;2022-08-18T10:59:48;15.30;;;13.20;;
31128;SDS011;17777;48.770;8.944;2022-08-18T11:05:19;6.93;;;6.22;;
31128;SDS011;17777;48.770;8.944;2022-08-18T11:07:52;4.80;;;4.40;;
31128;SDS011;17777;48.770;8.944;2022-08-18T11:10:42;3.45;;;3.15;;
31128;SDS011;17777;48.770;8.944;2022-08-18T11:18:50;1.38;;;1.27;;
31128;SDS011;17777;48.770;8.944;2022-08-18T11:26:51;0.68;;;0.68;;
31128;SDS011;17777;48.770;8.944;2022-08-18T11:29:36;0.82;;;0.82;;
31128;SDS011;17777;48.770;8.944;2022-08-18T11:32:27;0.70;;;0.70;;
31128;SDS011;17777;48.770;8.944;2022-08-18T11:35:05;0.70;;;0.70;;
31128;SDS011;17777;48.770;8.944;2022-08-18T11:40:24;0.47;;;0.47;;
31128;SDS011;17777;48.770;8.944;2022-08-18T11:43:02;0.88;;;0.82;;
31128;SDS011;17777;48.770;8.944;2022-08-18T11:45:48;0.90;;;0.90;;
31128;SDS011;17777;48.770;8.944;2022-08-18T11:58:52;1.42;;;1.02;;
31128;SDS011;17777;48.770;8.944;2022-08-18T12:09:21;1.75;;;0.88;;
31128;SDS011;17777;48.770;8.944;2022-08-18T12:11:56;0.88;;;0.80;;
31128;SDS011;17777;48.770;8.944;2022-08-18T12:17:35;0.70;;;0.70;;
31128;SDS011;17777;48.770;8.944;2022-08-18T12:20:01;0.77;;;0.73;;
31128;SDS011;17777;48.770;8.944;2022-08-18T12:22:31;0.60;;;0.60;;
31128;SDS011;17777;48.770;8.944;2022-08-18T12:24:58;0.80;;;0.70;;
31128;SDS011;17777;48.770;8.944;2022-08-18T12:27:24;0.80;;;0.80;;
31128;SDS011;17777;48.770;8.944;2022-08-18T12:29:53;0.80;;;0.80;;
31128;SDS011;17777;48.770;8.944;2022-08-18T12:32:21;0.93;;;0.85;;
31128;SDS011;17777;48.770;8.944;2022-08-18T12:34:49;0.82;;;0.82;;
31128;SDS011;17777;48.770;8.944;2022-08-18T12:37:17;0.85;;;0.85;;
31128;SDS011;17777;48.770;8.944;2022-08-18T12:39:47;1.10;;;1.00;;
31128;SDS011;17777;48.770;8.944;2022-08-18T12:42:13;0.95;;;0.80;;
31128;SDS011;17777;48.770;8.944;2022-08-18T12:44:39;0.90;;;0.90;;
31128;SDS011;17777;48.770;8.944;2022-08-18T12:47:11;0.70;;;0.70;;
31128;SDS011;17777;48.770;8.944;2022-08-18T12:49:40;0.93;;;0.93;;
31128;SDS011;17777;48.770;8.944;2022-08-18T12:52:07;0.80;;;0.80;;
31128;SDS011;17777;48.770;8.944;2022-08-18T12:54:34;0.68;;;0.68;;
31128;SDS011;17777;48.770;8.944;2022-08-18T12:57:02;0.73;;;0.73;;
31128;SDS011;17777;48.770;8.944;2022-08-18T12:59:34;0.90;;;0.90;;
31128;SDS011;17777;48.770;8.944;2022-08-18T13:02:00;0.80;;;0.80;;
31128;SDS011;17777;48.770;8.944;2022-08-18T13:04:27;0.70;;;0.70;;
31128;SDS011;17777;48.770;8.944;2022-08-18T13:06:55;0.80;;;0.80;;
31128;SDS011;17777;48.770;8.944;2022-08-18T13:09:23;1.00;;;0.80;;
31128;SDS011;17777;48.770;8.944;2022-08-18T13:11:49;0.80;;;0.80;;
31128;SDS011;17777;48.770;8.944;2022-08-18T13:14:15;0.60;;;0.60;;
31128;SDS011;17777;48.770;8.944;2022-08-18T13:16:42;0.60;;;0.60;;
31128;SDS011;17777;48.770;8.944;2022-08-18T13:19:27;0.68;;;0.68;;
31128;SDS011;17777;48.770;8.944;2022-08-18T13:21:53;0.60;;;0.60;;
31128;SDS011;17777;48.770;8.944;2022-08-18T13:24:19;0.50;;;0.50;;
31128;SDS011;17777;48.770;8.944;2022-08-18T13:26:45;0.60;;;0.60;;
31128;SDS011;17777;48.770;8.944;2022-08-18T13:29:15;0.50;;;0.50;;
31128;SDS011;17777;48.770;8.944;2022-08-18T13:31:43;0.98;;;0.90;;
31128;SDS011;17777;48.770;8.944;2022-08-18T13:34:10;0.70;;;0.68;;
31128;SDS011;17777;48.770;8.944;2022-08-18T13:36:37;0.70;;;0.70;;
31128;SDS011;17777;48.770;8.944;2022-08-18T13:39:10;0.80;;;0.80;;
31128;SDS011;17777;48.770;8.944;2022-08-18T13:41:41;0.60;;;0.60;;
31128;SDS011;17777;48.770;8.944;2022-08-18T13:44:09;0.63;;;0.63;;
31128;SDS011;17777;48.770;8.944;2022-08-18T13:46:37;0.80;;;0.80;;
31128;SDS011;17777;48.770;8.944;2022-08-18T13:49:16;0.60;;;0.60;;
31128;SDS011;17777;48.770;8.944;2022-08-18T13:51:59;0.55;;;0.55;;
31128;SDS011;17777;48.770;8.944;2022-08-18T13:54:25;0.70;;;0.70;;
31128;SDS011;17777;48.770;8.944;2022-08-18T13:56:57;0.90;;;0.60;;
31128;SDS011;17777;48.770;8.944;2022-08-18T13:59:24;0.50;;;0.50;;
31128;SDS011;17777;48.770;8.944;2022-08-18T14:01:55;0.57;;;0.52;;
31128;SDS011;17777;48.770;8.944;2022-08-18T14:04:22;0.50;;;0.50;;
31128;SDS011;17777;48.770;8.944;2022-08-18T14:06:51;0.70;;;0.70;;
31128;SDS011;17777;48.770;8.944;2022-08-18T14:09:19;0.60;;;0.60;;
31128;SDS011;17777;48.770;8.944;2022-08-18T14:11:45;0.50;;;0.50;;
31128;SDS011;17777;48.770;8.944;2022-08-18T14:14:12;0.77;;;0.77;;
31128;SDS011;17777;48.770;8.944;2022-08-18T14:16:38;0.60;;;0.60;;
31128;SDS011;17777;48.770;8.944;2022-08-18T14:19:04;0.70;;;0.70;;
31128;SDS011;17777;48.770;8.944;2022-08-18T14:21:49;0.80;;;0.80;;
31128;SDS011;17777;48.770;8.944;2022-08-18T14:24:38;0.60;;;0.60;;
31128;SDS011;17777;48.770;8.944;2022-08-18T14:27:26;0.65;;;0.65;;
31128;SDS011;17777;48.770;8.944;2022-08-18T14:30:08;0.63;;;0.63;;
31128;SDS011;17777;48.770;8.944;2022-08-18T14:32:37;0.93;;;0.80;;
31128;SDS011;17777;48.770;8.944;2022-08-18T14:35:05;0.80;;;0.80;;
31128;SDS011;17777;48.770;8.944;2022-08-18T14:37:33;0.70;;;0.70;;
31128;SDS011;17777;48.770;8.944;2022-08-18T14:39:59;0.50;;;0.50;;
31128;SDS011;17777;48.770;8.944;2022-08-18T14:42:25;0.60;;;0.60;;
31128;SDS011;17777;48.770;8.944;2022-08-18T14:44:52;0.60;;;0.60;;
31128;SDS011;17777;48.770;8.944;2022-08-18T14:47:18;0.60;;;0.60;;
31128;SDS011;17777;48.770;8.944;2022-08-18T14:49:43;0.43;;;0.43;;
31128;SDS011;17777;48.770;8.944;2022-08-18T14:52:10;0.52;;;0.52;;
31128;SDS011;17777;48.770;8.944;2022-08-18T14:54:37;0.60;;;0.60;;
31128;SDS011;17777;48.770;8.944;2022-08-18T14:57:03;0.50;;;0.50;;
31128;SDS011;17777;48.770;8.944;2022-08-18T14:59:30;0.65;;;0.65;;
31128;SDS011;17777;48.770;8.944;2022-08-18T15:01:57;0.60;;;0.60;;
31128;SDS011;17777;48.770;8.944;2022-08-18T15:04:23;0.50;;;0.50;;
31128;SDS011;17777;48.770;8.944;2022-08-18T15:06:51;0.40;;;0.40;;
31128;SDS011;17777;48.770;8.944;2022-08-18T15:09:18;0.50;;;0.50;;
31128;SDS011;17777;48.770;8.944;2022-08-18T15:11:43;0.70;;;0.43;;
31128;SDS011;17777;48.770;8.944;2022-08-18T15:14:09;0.80;;;0.80;;
31128;SDS011;17777;48.770;8.944;2022-08-18T15:16:35;0.60;;;0.60;;
31128;SDS011;17777;48.770;8.944;2022-08-18T15:19:02;0.90;;;0.73;;
31128;SDS011;17777;48.770;8.944;2022-08-18T15:21:28;0.95;;;0.70;;
31128;SDS011;17777;48.770;8.944;2022-08-18T15:24:13;0.50;;;0.50;;
31128;SDS011;17777;48.770;8.944;2022-08-18T15:27:04;1.80;;;0.60;;
31128;SDS011;17777;48.770;8.944;2022-08-18T15:29:30;0.70;;;0.70;;
31128;SDS011;17777;48.770;8.944;2022-08-18T15:31:56;0.65;;;0.65;;
31128;SDS011;17777;48.770;8.944;2022-08-18T15:34:23;0.50;;;0.50;;
31128;SDS011;17777;48.770;8.944;2022-08-18T15:36:49;0.60;;;0.60;;
31128;SDS011;17777;48.770;8.944;2022-08-18T15:39:15;0.57;;;0.55;;
31128;SDS011;17777;48.770;8.944;2022-08-18T15:41:42;0.35;;;0.35;;
31128;SDS011;17777;48.770;8.944;2022-08-18T15:44:13;0.57;;;0.55;;
31128;SDS011;17777;48.770;8.944;2022-08-18T15:46:41;0.70;;;0.70;;
31128;SDS011;17777;48.770;8.944;2022-08-18T15:49:08;0.60;;;0.60;;
31128;SDS011;17777;48.770;8.944;2022-08-18T15:51:35;0.70;;;0.70;;
31128;SDS011;17777;48.770;8.944;2022-08-18T15:54:03;1.20;;;0.68;;
31128;SDS011;17777;48.770;8.944;2022-08-18T15:56:30;0.50;;;0.50;;
31128;SDS011;17777;48.770;8.944;2022-08-18T15:58:57;0.47;;;0.47;;
31128;SDS011;17777;48.770;8.944;2022-08-18T16:01:28;0.45;;;0.45;;
31128;SDS011;17777;48.770;8.944;2022-08-18T16:03:54;0.50;;;0.50;;
31128;SDS011;17777;48.770;8.944;2022-08-18T16:06:21;0.80;;;0.80;;
31128;SDS011;17777;48.770;8.944;2022-08-18T16:08:50;0.80;;;0.80;;
31128;SDS011;17777;48.770;8.944;2022-08-18T16:11:16;0.63;;;0.63;;
31128;SDS011;17777;48.770;8.944;2022-08-18T16:13:44;0.70;;;0.70;;
31128;SDS011;17777;48.770;8.944;2022-08-18T16:16:15;0.70;;;0.70;;
31128;SDS011;17777;48.770;8.944;2022-08-18T16:18:47;1.00;;;0.90;;
31128;SDS011;17777;48.770;8.944;2022-08-18T16:21:15;0.80;;;0.80;;
31128;SDS011;17777;48.770;8.944;2022-08-18T16:23:46;0.73;;;0.73;;
31128;SDS011;17777;48.770;8.944;2022-08-18T16:26:16;0.60;;;0.60;;
31128;SDS011;17777;48.770;8.944;2022-08-18T16:28:44;0.47;;;0.47;;
31128;SDS011;17777;48.770;8.944;2022-08-18T16:31:16;0.63;;;0.60;;
31128;SDS011;17777;48.770;8.944;2022-08-18T16:33:49;0.60;;;0.60;;
31128;SDS011;17777;48.770;8.944;2022-08-18T16:36:17;0.50;;;0.50;;
31128;SDS011;17777;48.770;8.944;2022-08-18T16:38:43;0.95;;;0.80;;
31128;SDS011;17777;48.770;8.944;2022-08-18T16:41:10;0.38;;;0.38;;
31128;SDS011;17777;48.770;8.944;2022-08-18T16:43:39;0.70;;;0.70;;
31128;SDS011;17777;48.770;8.944;2022-08-18T16:46:09;0.60;;;0.60;;
31128;SDS011;17777;48.770;8.944;2022-08-18T16:48:38;0.60;;;0.60;;
31128;SDS011;17777;48.770;8.944;2022-08-18T16:51:04;0.52;;;0.52;;
31128;SDS011;17777;48.770;8.944;2022-08-18T16:53:30;0.70;;;0.70;;
31128;SDS011;17777;48.770;8.944;2022-08-18T16:55:56;0.98;;;0.70;;
31128;SDS011;17777;48.770;8.944;2022-08-18T16:58:22;0.52;;;0.52;;
31128;SDS011;17777;48.770;8.944;2022-08-18T17:03:50;0.53;;;0.53;;
31128;SDS011;17777;48.770;8.944;2022-08-18T17:06:31;1.10;;;0.60;;
31128;SDS011;17777;48.770;8.944;2022-08-18T17:08:58;0.60;;;0.60;;
31128;SDS011;17777;48.770;8.944;2022-08-18T17:11:25;0.57;;;0.57;;
31128;SDS011;17777;48.770;8.944;2022-08-18T17:13:52;0.60;;;0.60;;
31128;SDS011;17777;48.770;8.944;2022-08-18T17:16:21;0.50;;;0.50;;
31128;SDS011;17777;48.770;8.944;2022-08-18T17:18:49;0.60;;;0.60;;
31128;SDS011;17777;48.770;8.944;2022-08-18T17:21:18;0.68;;;0.68;;
31128;SDS011;17777;48.770;8.944;2022-08-18T17:23:47;0.60;;;0.60;;
31128;SDS011;17777;48.770;8.944;2022-08-18T17:26:38;0.70;;;0.70;;
31128;SDS011;17777;48.770;8.944;2022-08-18T17:32:25;0.90;;;0.90;;
31128;SDS011;17777;48.770;8.944;2022-08-18T17:35:10;0.85;;;0.85;;
31128;SDS011;17777;48.770;8.944;2022-08-18T17:40:58;1.10;;;1.00;;
31128;SDS011;17777;48.770;8.944;2022-08-18T17:43:29;1.02;;;1.02;;
31128;SDS011;17777;48.770;8.944;2022-08-18T17:46:00;0.90;;;0.90;;
31128;SDS011;17777;48.770;8.944;2022-08-18T17:48:40;0.80;;;0.80;;
31128;SDS011;17777;48.770;8.944;2022-08-18T17:51:16;1.00;;;1.00;;
31128;SDS011;17777;48.770;8.944;2022-08-18T17:54:00;0.70;;;0.70;;
31128;SDS011;17777;48.770;8.944;2022-08-18T17:56:47;1.40;;;1.30;;